createdAt,value
2022-09-23T00:00:21.971Z,15.1
2022-09-23T00:05:21.359Z,13.1
2022-09-23T00:10:20.708Z,16.1
2022-09-23T00:15:20.081Z,10.9
2022-09-23T00:20:20.780Z,9.3
2022-09-23T00:25:18.761Z,8.5
2022-09-23T00:30:18.081Z,9.5
2022-09-23T00:35:17.455Z,7.2
2022-09-23T00:40:16.831Z,7.4
2022-09-23T00:45:16.175Z,9.2
2022-09-23T00:50:15.489Z,7.2
2022-09-23T00:55:14.806Z,14.2
2022-09-23T01:00:14.124Z,8.6
2022-09-23T01:05:13.486Z,9.5
2022-09-23T01:10:12.807Z,8
2022-09-23T01:15:12.053Z,9.2
2022-09-23T01:20:11.433Z,9.4
2022-09-23T01:25:10.695Z,7.6
2022-09-23T01:30:10.039Z,8.3
2022-09-23T01:35:09.356Z,5.6
2022-09-23T01:40:08.777Z,9.6
2022-09-23T01:45:08.065Z,6.4
2022-09-23T01:50:07.394Z,7.8
2022-09-23T01:55:06.802Z,5
2022-09-23T02:00:06.160Z,7.5
2022-09-23T02:05:06.812Z,7.3
2022-09-23T02:10:04.844Z,5.6
2022-09-23T02:15:04.213Z,6.5
2022-09-23T02:20:03.528Z,3.8
2022-09-23T02:25:02.886Z,5
2022-09-23T02:30:02.177Z,5.1
2022-09-23T02:35:02.439Z,6.1
2022-09-23T02:40:00.783Z,6
2022-09-23T02:45:00.142Z,4.5
2022-09-23T02:50:00.798Z,4.4
2022-09-23T02:54:58.763Z,5.5
2022-09-23T02:59:58.010Z,6.4
2022-09-23T03:04:57.351Z,6.8
2022-09-23T03:09:56.647Z,6
2022-09-23T03:14:55.938Z,5.5
2022-09-23T03:19:55.237Z,4.7
2022-09-23T03:24:54.553Z,5.2
2022-09-23T03:29:53.803Z,4.6
2022-09-23T03:34:53.148Z,7.1
2022-09-23T03:39:52.422Z,6
2022-09-23T03:44:51.943Z,10.4
2022-09-23T03:49:50.954Z,6
2022-09-23T03:54:50.257Z,9.8
2022-09-23T03:59:49.501Z,4.8
2022-09-23T04:04:48.840Z,6.4
2022-09-23T04:09:48.110Z,7.4
2022-09-23T04:14:47.389Z,9.2
2022-09-23T04:19:46.685Z,8.9
2022-09-23T04:24:45.988Z,6.6
2022-09-23T04:29:45.248Z,5.5
2022-09-23T04:34:44.533Z,8.4
2022-09-23T04:39:45.745Z,4.1
2022-09-23T04:44:43.063Z,14.7
2022-09-23T04:49:42.338Z,8.2
2022-09-23T04:54:41.657Z,7
2022-09-23T04:59:40.884Z,37.5
2022-09-23T05:04:41.608Z,12.1
2022-09-23T05:09:39.414Z,14
2022-09-23T05:14:38.701Z,24.9
2022-09-23T05:19:37.946Z,18.1
2022-09-23T05:24:37.203Z,9.9
2022-09-23T05:29:36.402Z,12.4
2022-09-23T05:34:35.732Z,14.9
2022-09-23T05:39:34.911Z,8.3
2022-09-23T05:44:34.191Z,13.7
2022-09-23T05:49:58.110Z,8.5
2022-09-23T05:54:32.727Z,6.6
2022-09-23T05:59:31.948Z,6.7
2022-09-23T06:04:31.249Z,9.2
2022-09-23T06:09:35.542Z,7
2022-09-23T06:14:29.805Z,7.2
2022-09-23T06:19:29.130Z,8.6
2022-09-23T06:24:31.355Z,8
2022-09-23T06:29:27.679Z,8.4
2022-09-23T06:34:27.031Z,8
2022-09-23T06:39:26.321Z,7.7
2022-09-23T06:44:25.686Z,7.2
2022-09-23T06:49:25.084Z,7.6
2022-09-23T06:54:24.352Z,11.1
2022-09-23T06:59:23.691Z,6.3
2022-09-23T07:04:27.278Z,10.1
2022-09-23T07:09:22.414Z,6.8
2022-09-23T07:14:23.202Z,5
2022-09-23T07:19:21.107Z,8.2
2022-09-23T07:24:20.525Z,10.3
2022-09-23T07:29:19.847Z,8.2
2022-09-23T07:34:19.262Z,10.7
2022-09-23T07:39:18.580Z,7.4
2022-09-23T07:44:17.989Z,8.5
2022-09-23T07:49:17.333Z,10.2
2022-09-23T07:54:17.722Z,11.6
2022-09-23T07:59:16.124Z,10.5
2022-09-23T08:04:15.464Z,6.3
2022-09-23T08:09:14.874Z,9.4
2022-09-23T08:14:14.294Z,9.7
2022-09-23T08:19:13.669Z,8.2
2022-09-23T08:24:13.080Z,6.7
2022-09-23T08:29:12.486Z,7.4
2022-09-23T08:34:11.937Z,11
2022-09-23T08:39:11.309Z,6.5
2022-09-23T08:44:10.794Z,7.9
2022-09-23T08:49:10.175Z,8.1
2022-09-23T08:50:22.424Z,8.1
2022-09-23T08:54:09.611Z,5
2022-09-23T08:59:09.156Z,6.3
2022-09-23T09:04:12.399Z,7.6
2022-09-23T09:09:07.982Z,6.7
2022-09-23T09:14:08.582Z,6.6
2022-09-23T09:19:07.148Z,8.6
2022-09-23T09:24:06.483Z,6.7
2022-09-23T09:29:17.126Z,5.6
2022-09-23T09:34:05.326Z,6.4
2022-09-23T09:39:04.770Z,7.5
2022-09-23T09:44:04.309Z,6.6
2022-09-23T09:49:03.798Z,16.9
2022-09-23T09:54:04.688Z,5.1
2022-09-23T09:59:02.901Z,5.5
2022-09-23T10:04:04.389Z,7.6
2022-09-23T10:09:01.962Z,4.2
2022-09-23T10:14:01.463Z,6.8
2022-09-23T10:19:00.963Z,4.6
2022-09-23T10:24:00.563Z,6.7
2022-09-23T10:29:00.150Z,6.3
2022-09-23T10:33:59.663Z,4.7
2022-09-23T10:37:11.834Z,4.7
2022-09-23T10:38:59.189Z,3
2022-09-23T10:43:58.791Z,5.1
2022-09-23T10:48:58.346Z,3.2
2022-09-23T10:53:57.906Z,4.3
2022-09-23T10:58:57.487Z,9.8
2022-09-23T11:03:57.085Z,4.3
2022-09-23T11:08:56.638Z,4.9
2022-09-23T11:13:56.269Z,14.8
2022-09-23T11:18:55.848Z,6.2
2022-09-23T11:23:55.466Z,7
2022-09-23T11:28:55.011Z,5.6
2022-09-23T11:33:54.661Z,17.7
2022-09-23T11:38:54.282Z,4.5
2022-09-23T11:43:53.874Z,3.8
2022-09-23T11:48:53.467Z,3.4
2022-09-23T11:53:53.153Z,6
2022-09-23T11:58:57.291Z,3.1
2022-09-23T12:03:52.491Z,4.3
2022-09-23T12:08:52.022Z,7.7
2022-09-23T12:13:51.641Z,6.1
2022-09-23T12:18:51.246Z,4
2022-09-23T12:23:50.889Z,9.5
2022-09-23T12:28:50.543Z,10
2022-09-23T12:33:50.172Z,5.2
2022-09-23T12:38:49.780Z,4.1
2022-09-23T12:43:49.534Z,8.6
2022-09-23T12:48:49.055Z,9.4
2022-09-23T12:53:48.690Z,38.4
2022-09-23T12:58:48.293Z,6.3
2022-09-23T13:03:47.984Z,5.5
2022-09-23T13:08:47.569Z,4.6
2022-09-23T13:13:47.267Z,5
2022-09-23T13:18:46.875Z,5.8
2022-09-23T13:23:46.524Z,17.9
2022-09-23T13:28:46.096Z,9.4
2022-09-23T13:33:45.770Z,7.8
2022-09-23T13:38:45.372Z,6
2022-09-23T13:43:45.000Z,10.9
2022-09-23T13:48:44.567Z,9.4
2022-09-23T13:53:44.299Z,8.5
2022-09-23T13:58:43.743Z,24.5
2022-09-23T14:03:43.343Z,4.1
2022-09-23T14:08:42.902Z,9.3
2022-09-23T14:13:42.493Z,17.7
2022-09-23T14:18:42.040Z,7.6
2022-09-23T14:23:41.621Z,4.8
2022-09-23T14:28:42.533Z,5.7
2022-09-23T14:33:40.788Z,12.3
2022-09-23T14:38:40.310Z,10.7
2022-09-23T14:43:39.903Z,4.8
2022-09-23T14:48:39.507Z,5.5
2022-09-23T14:53:40.390Z,39.6
2022-09-23T14:58:38.667Z,23
2022-09-23T15:03:38.419Z,23.8
2022-09-23T15:08:37.877Z,37.7
2022-09-23T15:13:37.453Z,9.1
2022-09-23T15:18:37.081Z,13.3
2022-09-23T15:23:36.665Z,10.6
2022-09-23T15:28:36.233Z,27.8
2022-09-23T15:33:35.891Z,14.8
2022-09-23T15:38:36.836Z,13
2022-09-23T15:43:35.030Z,6.8
2022-09-23T15:48:34.642Z,8.7
2022-09-23T15:53:34.263Z,10.4
2022-09-23T15:58:33.806Z,12.1
2022-09-23T16:03:33.402Z,11.5
2022-09-23T16:08:33.351Z,13.6
2022-09-23T16:13:32.553Z,11.4
2022-09-23T16:18:32.104Z,19.8
2022-09-23T16:23:31.734Z,17.7
2022-09-23T16:28:31.307Z,20
2022-09-23T16:33:30.922Z,13
2022-09-23T16:38:30.437Z,23
2022-09-23T16:43:30.056Z,27.9
2022-09-23T16:48:29.621Z,25.9
2022-09-23T16:53:30.394Z,25.1
2022-09-23T16:58:28.675Z,25.5
2022-09-23T17:03:28.229Z,25.1
2022-09-23T17:08:27.736Z,29
2022-09-23T17:13:27.294Z,40.3
2022-09-23T17:18:26.827Z,27.8
2022-09-23T17:23:26.377Z,28.3
2022-09-23T17:28:25.904Z,27.9
2022-09-23T17:33:25.423Z,29.3
2022-09-23T17:38:28.629Z,36.4
2022-09-23T17:43:24.461Z,43.7
2022-09-23T17:48:23.958Z,97.8
2022-09-23T17:53:23.509Z,54
2022-09-23T17:58:23.029Z,69.2
2022-09-23T18:03:22.576Z,44.6
2022-09-23T18:08:22.007Z,38.1
2022-09-23T18:13:21.668Z,80.6
2022-09-23T18:18:21.042Z,46.2
2022-09-23T18:23:24.066Z,40.6
2022-09-23T18:28:20.022Z,50.6
2022-09-23T18:33:19.537Z,68.6
2022-09-23T18:38:19.045Z,116.2
2022-09-23T18:43:19.868Z,249.2
2022-09-23T18:48:18.080Z,199.3
2022-09-23T18:53:17.572Z,368.9
2022-09-23T18:58:17.028Z,271.1
2022-09-23T19:03:16.514Z,215.6
2022-09-23T19:08:15.960Z,216.9
2022-09-23T19:13:15.471Z,183.4
2022-09-23T19:18:14.931Z,145.7
2022-09-23T19:23:14.431Z,116.7
2022-09-23T19:28:13.965Z,95
2022-09-23T19:33:13.367Z,80.7
2022-09-23T19:38:12.886Z,77
2022-09-23T19:43:12.345Z,82.7
2022-09-23T19:48:11.794Z,73.9
2022-09-23T19:53:11.302Z,80
2022-09-23T19:58:10.957Z,72.4
2022-09-23T20:03:10.230Z,79.9
2022-09-23T20:08:09.810Z,70.4
2022-09-23T20:13:09.181Z,65.6
2022-09-23T20:18:08.633Z,85.3
2022-09-23T20:23:08.158Z,82.3
2022-09-23T20:28:07.560Z,89.2
2022-09-23T20:33:07.012Z,92.4
2022-09-23T20:38:08.151Z,85.2
2022-09-23T20:43:05.918Z,93.2
2022-09-23T20:48:05.403Z,107.7
2022-09-23T20:53:04.806Z,95.6
2022-09-23T20:58:04.230Z,97.1
2022-09-23T21:03:03.724Z,101.1
2022-09-23T21:08:03.310Z,95
2022-09-23T21:13:02.982Z,81.5
2022-09-23T21:18:02.059Z,88.7
2022-09-23T21:23:01.536Z,77.2
2022-09-23T21:28:00.925Z,80.9
2022-09-23T21:33:00.388Z,77.7
2022-09-23T21:37:59.796Z,73.9
2022-09-23T21:42:59.256Z,68.9
2022-09-23T21:47:58.699Z,64.8
2022-09-23T21:52:58.179Z,69.4
2022-09-23T21:57:57.514Z,66.4
2022-09-23T22:02:56.972Z,60.1
2022-09-23T22:07:56.365Z,57.7
2022-09-23T22:12:55.813Z,59.5
2022-09-23T22:17:55.200Z,58.5
2022-09-23T22:22:54.647Z,64.1
2022-09-23T22:27:54.045Z,70.2
2022-09-23T22:32:55.321Z,68.6
2022-09-23T22:37:52.862Z,74.1
2022-09-23T22:42:52.270Z,61.8
2022-09-23T22:47:51.630Z,65.2
2022-09-23T22:52:51.039Z,69.1
2022-09-23T22:57:50.419Z,68.2
2022-09-23T23:02:49.839Z,59.1
2022-09-23T23:07:49.213Z,56.4
2022-09-23T23:12:48.605Z,55.8
2022-09-23T23:17:47.980Z,48.9
2022-09-23T23:22:47.397Z,44.9
2022-09-23T23:27:46.776Z,43.5
2022-09-23T23:32:46.197Z,34
2022-09-23T23:37:45.533Z,39
2022-09-23T23:42:44.953Z,39.3
2022-09-23T23:47:44.358Z,37.7
2022-09-23T23:52:43.777Z,38.3
2022-09-23T23:57:43.159Z,39.8
